Time,TemperatureF,DewpointF,PressureIn,WindDirection,WindDirectionDegrees,WindSpeedMPH,WindSpeedGustMPH,Humidity,HourlyPrecipIn,Conditions,Clouds,dailyrainin,SoftwareType,DateUTC
2013-04-16 00:01:00,38.4,36.0,29.54,North,355,2.0,-999.0,92,-99.99,,,0.00,weatherlink.com 1.10,2013-04-16 07:01:00,
2013-04-16 00:16:00,38.3,36.0,29.54,NNE,15,12.0,-999.0,92,-99.99,,,0.00,weatherlink.com 1.10,2013-04-16 07:16:00,
2013-04-16 00:31:00,38.2,36.0,29.54,NNE,26,6.0,-999.0,92,-99.99,,,0.00,weatherlink.com 1.10,2013-04-16 07:31:00,
2013-04-16 00:46:00,38.2,36.0,29.55,North,360,1.0,-999.0,92,-99.99,,,0.00,weatherlink.com 1.10,2013-04-16 07:46:00,
2013-04-16 01:01:00,38.3,36.0,29.55,NNE,18,3.0,-999.0,92,-99.99,,,0.00,weatherlink.com 1.10,2013-04-16 08:01:00,
2013-04-16 01:16:00,38.3,37.0,29.55,NNE,23,0.0,-999.0,93,-99.99,,,0.00,weatherlink.com 1.10,2013-04-16 08:16:00,
2013-04-16 01:31:00,38.3,37.0,29.55,NNE,27,5.0,-999.0,93,-99.99,,,0.00,weatherlink.com 1.10,2013-04-16 08:31:00,
2013-04-16 01:46:00,38.2,36.0,29.55,NNW,342,0.0,-999.0,93,-99.99,,,0.00,weatherlink.com 1.10,2013-04-16 08:46:00,
2013-04-16 02:01:00,38.2,36.0,29.55,NNW,346,0.0,-999.0,93,-99.99,,,0.00,weatherlink.com 1.10,2013-04-16 09:01:00,
2013-04-16 02:16:00,38.2,36.0,29.55,NNE,14,0.0,-999.0,93,-99.99,,,0.00,weatherlink.com 1.10,2013-04-16 09:16:00,
2013-04-16 02:31:00,38.2,36.0,29.55,NNW,336,0.0,-999.0,93,-99.99,,,0.00,weatherlink.com 1.10,2013-04-16 09:31:00,
2013-04-16 02:46:00,38.2,37.0,29.55,NW,318,0.0,-999.0,94,-99.99,,,0.00,weatherlink.com 1.10,2013-04-16 09:46:00,
2013-04-16 03:01:00,37.5,36.0,29.55,West,273,0.0,-999.0,93,-99.99,,,0.00,weatherlink.com 1.10,2013-04-16 10:01:00,
2013-04-16 03:16:00,36.5,35.0,29.56,WSW,241,0.0,-999.0,93,-99.99,,,0.00,weatherlink.com 1.10,2013-04-16 10:16:00,
2013-04-16 03:31:00,36.2,34.0,29.56,WSW,246,0.0,-999.0,93,-99.99,,,0.00,weatherlink.com 1.10,2013-04-16 10:31:00,
2013-04-16 03:46:00,35.7,34.0,29.56,SW,234,0.0,-999.0,93,-99.99,,,0.00,weatherlink.com 1.10,2013-04-16 10:46:00,
2013-04-16 04:01:00,35.4,34.0,29.57,WSW,249,0.0,-999.0,94,-99.99,,,0.00,weatherlink.com 1.10,2013-04-16 11:01:00,
2013-04-16 04:16:00,35.0,34.0,29.57,WSW,248,0.0,-999.0,94,-99.99,,,0.00,weatherlink.com 1.10,2013-04-16 11:16:00,
2013-04-16 04:31:00,34.7,33.0,29.57,WSW,248,0.0,-999.0,94,-99.99,,,0.00,weatherlink.com 1.10,2013-04-16 11:31:00,
2013-04-16 04:46:00,34.6,33.0,29.57,SW,226,0.0,-999.0,94,-99.99,,,0.00,weatherlink.com 1.10,2013-04-16 11:46:00,
2013-04-16 05:01:00,34.7,33.0,29.58,WNW,295,0.0,-999.0,94,-99.99,,,0.00,weatherlink.com 1.10,2013-04-16 12:01:00,
2013-04-16 05:16:00,35.3,34.0,29.58,North,5,0.0,-999.0,95,-99.99,,,0.00,weatherlink.com 1.10,2013-04-16 12:16:00,
2013-04-16 05:46:00,35.4,34.0,29.59,NW,313,0.0,-999.0,93,-99.99,,,0.00,weatherlink.com 1.10,2013-04-16 12:46:00,
2013-04-16 06:01:00,35.4,34.0,29.60,NNW,334,0.0,-999.0,93,-99.99,,,0.00,weatherlink.com 1.10,2013-04-16 13:01:00,
2013-04-16 06:16:00,35.3,34.0,29.61,NNW,335,0.0,-999.0,93,-99.99,,,0.00,weatherlink.com 1.10,2013-04-16 13:16:00,
2013-04-16 06:31:00,35.5,33.0,29.61,NW,323,0.0,-999.0,92,-99.99,,,0.00,weatherlink.com 1.10,2013-04-16 13:31:00,
2013-04-16 06:46:00,35.6,34.0,29.61,WSW,252,0.0,-999.0,92,-99.99,,,0.00,weatherlink.com 1.10,2013-04-16 13:46:00,
2013-04-16 07:01:00,36.0,33.0,29.62,West,281,0.0,-999.0,90,-99.99,,,0.00,weatherlink.com 1.10,2013-04-16 14:01:00,
2013-04-16 07:31:00,39.2,35.0,29.62,NNE,23,0.0,-999.0,84,-99.99,,,0.00,weatherlink.com 1.10,2013-04-16 14:31:00,
2013-04-16 07:46:00,40.5,35.0,29.63,NE,36,0.0,-999.0,80,-99.99,,,0.00,weatherlink.com 1.10,2013-04-16 14:46:00,
2013-04-16 08:01:00,41.8,35.0,29.64,North,355,0.0,-999.0,76,-99.99,,,0.00,weatherlink.com 1.10,2013-04-16 15:01:00,
2013-04-16 08:16:00,43.0,35.0,29.64,NNE,22,0.0,-999.0,72,-99.99,,,0.00,weatherlink.com 1.10,2013-04-16 15:16:00,
2013-04-16 08:31:00,44.0,34.0,29.64,NNE,24,0.0,-999.0,68,-99.99,,,0.00,weatherlink.com 1.10,2013-04-16 15:31:00,
2013-04-16 09:01:00,45.1,33.0,29.64,NNE,26,4.0,-999.0,63,-99.99,,,0.00,weatherlink.com 1.10,2013-04-16 16:01:00,
2013-04-16 09:16:00,45.5,33.0,29.64,NNE,26,0.0,-999.0,62,-99.99,,,0.00,weatherlink.com 1.10,2013-04-16 16:16:00,
2013-04-16 09:31:00,46.2,34.0,29.64,NNE,22,4.0,-999.0,62,-99.99,,,0.00,weatherlink.com 1.10,2013-04-16 16:31:00,
2013-04-16 09:46:00,47.2,33.0,29.64,East,80,2.0,-999.0,58,-99.99,,,0.00,weatherlink.com 1.10,2013-04-16 16:46:00,
2013-04-16 10:01:00,47.7,33.0,29.65,ENE,72,5.0,-999.0,58,-99.99,,,0.00,weatherlink.com 1.10,2013-04-16 17:01:00,
2013-04-16 10:31:00,49.5,35.0,29.65,NE,40,0.0,-999.0,58,-99.99,,,0.00,weatherlink.com 1.10,2013-04-16 17:31:00,
2013-04-16 10:46:00,51.0,35.0,29.66,NE,34,4.0,-999.0,54,-99.99,,,0.00,weatherlink.com 1.10,2013-04-16 17:46:00,
2013-04-16 11:01:00,49.6,33.0,29.65,NNW,344,1.0,-999.0,53,-99.99,,,0.00,weatherlink.com 1.10,2013-04-16 18:01:00,
2013-04-16 11:16:00,51.4,34.0,29.66,North,355,0.0,-999.0,52,-99.99,,,0.00,weatherlink.com 1.10,2013-04-16 18:16:00,
2013-04-16 11:31:00,52.0,33.0,29.66,NE,41,1.0,-999.0,48,-99.99,,,0.00,weatherlink.com 1.10,2013-04-16 18:31:00,
2013-04-16 11:46:00,51.6,33.0,29.66,ENE,60,3.0,-999.0,50,-99.99,,,0.00,weatherlink.com 1.10,2013-04-16 18:46:00,
2013-04-16 12:01:00,53.3,37.0,29.66,NNE,29,2.0,-999.0,54,-99.99,,,0.00,weatherlink.com 1.10,2013-04-16 19:01:00,
2013-04-16 12:16:00,53.7,39.0,29.66,NE,49,1.0,-999.0,58,-99.99,,,0.00,weatherlink.com 1.10,2013-04-16 19:16:00,
2013-04-16 12:31:00,52.8,36.0,29.66,NE,34,3.0,-999.0,53,-99.99,,,0.00,weatherlink.com 1.10,2013-04-16 19:31:00,
2013-04-16 12:46:00,52.9,37.0,29.66,North,9,5.0,-999.0,56,-99.99,,,0.00,weatherlink.com 1.10,2013-04-16 19:46:00,
2013-04-16 13:01:00,52.4,38.0,29.66,East,84,0.0,-999.0,59,-99.99,,,0.00,weatherlink.com 1.10,2013-04-16 20:01:00,
2013-04-16 13:16:00,53.3,38.0,29.66,North,355,3.0,-999.0,57,-99.99,,,0.00,weatherlink.com 1.10,2013-04-16 20:16:00,
2013-04-16 13:31:00,53.7,38.0,29.66,NE,36,5.0,-999.0,56,-99.99,,,0.00,weatherlink.com 1.10,2013-04-16 20:31:00,
2013-04-16 13:46:00,52.5,37.0,29.66,NE,43,9.0,-999.0,56,-99.99,,,0.00,weatherlink.com 1.10,2013-04-16 20:46:00,
2013-04-16 14:01:00,52.5,36.0,29.66,North,5,12.0,-999.0,53,-99.99,,,0.00,weatherlink.com 1.10,2013-04-16 21:01:00,
2013-04-16 14:16:00,52.2,34.0,29.66,NE,52,6.0,-999.0,50,-99.99,,,0.00,weatherlink.com 1.10,2013-04-16 21:16:00,
2013-04-16 14:31:00,52.1,35.0,29.66,North,355,5.0,-999.0,53,-99.99,,,0.00,weatherlink.com 1.10,2013-04-16 21:31:00,
2013-04-16 14:46:00,52.0,35.0,29.66,ENE,66,4.0,-999.0,52,-99.99,,,0.00,weatherlink.com 1.10,2013-04-16 21:46:00,
2013-04-16 15:01:00,52.0,35.0,29.66,NNE,32,6.0,-999.0,53,-99.99,,,0.00,weatherlink.com 1.10,2013-04-16 22:01:00,
2013-04-16 15:16:00,52.0,36.0,29.66,NNE,12,4.0,-999.0,54,-99.99,,,0.00,weatherlink.com 1.10,2013-04-16 22:16:00,
2013-04-16 15:31:00,52.1,37.0,29.66,NE,38,5.0,-999.0,57,-99.99,,,0.00,weatherlink.com 1.10,2013-04-16 22:31:00,
2013-04-16 16:01:00,51.6,37.0,29.65,North,349,5.0,-999.0,57,-99.99,,,0.00,weatherlink.com 1.10,2013-04-16 23:01:00,
2013-04-16 16:16:00,51.5,37.0,29.65,NE,53,9.0,-999.0,58,-99.99,,,0.00,weatherlink.com 1.10,2013-04-16 23:16:00,
2013-04-16 16:31:00,51.4,36.0,29.65,North,11,2.0,-999.0,57,-99.99,,,0.00,weatherlink.com 1.10,2013-04-16 23:31:00,
2013-04-16 16:46:00,51.4,36.0,29.65,NNE,23,6.0,-999.0,57,-99.99,,,0.00,weatherlink.com 1.10,2013-04-16 23:46:00,
2013-04-16 17:01:00,51.5,37.0,29.65,NW,309,1.0,-999.0,57,-99.99,,,0.00,weatherlink.com 1.10,2013-04-17 00:01:00,
2013-04-16 17:16:00,50.8,36.0,29.65,North,355,3.0,-999.0,58,-99.99,,,0.00,weatherlink.com 1.10,2013-04-17 00:16:00,
2013-04-16 17:31:00,50.0,35.0,29.65,NE,46,3.0,-999.0,57,-99.99,,,0.00,weatherlink.com 1.10,2013-04-17 00:31:00,
2013-04-16 17:46:00,49.8,35.0,29.65,NE,43,3.0,-999.0,58,-99.99,,,0.00,weatherlink.com 1.10,2013-04-17 00:46:00,
2013-04-16 18:01:00,49.9,35.0,29.65,NNE,24,2.0,-999.0,58,-99.99,,,0.00,weatherlink.com 1.10,2013-04-17 01:01:00,
2013-04-16 18:16:00,49.0,35.0,29.65,North,350,4.0,-999.0,58,-99.99,,,0.00,weatherlink.com 1.10,2013-04-17 01:16:00,
2013-04-16 18:31:00,48.1,35.0,29.65,NNE,26,6.0,-999.0,60,-99.99,,,0.00,weatherlink.com 1.10,2013-04-17 01:31:00,
2013-04-16 18:46:00,47.3,34.0,29.66,NE,36,3.0,-999.0,61,-99.99,,,0.00,weatherlink.com 1.10,2013-04-17 01:46:00,
2013-04-16 19:01:00,47.2,35.0,29.66,NNW,327,0.0,-999.0,62,-99.99,,,0.00,weatherlink.com 1.10,2013-04-17 02:01:00,
2013-04-16 19:16:00,46.6,34.0,29.66,North,5,3.0,-999.0,62,-99.99,,,0.00,weatherlink.com 1.10,2013-04-17 02:16:00,
2013-04-16 19:31:00,45.6,33.0,29.66,NNE,27,0.0,-999.0,62,-99.99,,,0.00,weatherlink.com 1.10,2013-04-17 02:31:00,
2013-04-16 19:46:00,44.7,33.0,29.66,NNW,336,4.0,-999.0,64,-99.99,,,0.00,weatherlink.com 1.10,2013-04-17 02:46:00,
2013-04-16 20:01:00,43.7,33.0,29.66,North,10,3.0,-999.0,66,-99.99,,,0.00,weatherlink.com 1.10,2013-04-17 03:01:00,
2013-04-16 20:16:00,43.9,33.0,29.68,North,360,11.0,-999.0,66,-99.99,,,0.00,weatherlink.com 1.10,2013-04-17 03:16:00,
2013-04-16 20:31:00,44.2,33.0,29.68,North,355,3.0,-999.0,65,-99.99,,,0.00,weatherlink.com 1.10,2013-04-17 03:31:00,
2013-04-16 20:46:00,44.3,33.0,29.68,NNE,24,3.0,-999.0,65,-99.99,,,0.00,weatherlink.com 1.10,2013-04-17 03:46:00,
2013-04-16 21:01:00,44.1,33.0,29.68,NNE,19,6.0,-999.0,65,-99.99,,,0.00,weatherlink.com 1.10,2013-04-17 04:01:00,
2013-04-16 21:16:00,44.5,32.0,29.68,North,360,4.0,-999.0,61,-99.99,,,0.00,weatherlink.com 1.10,2013-04-17 04:16:00,
2013-04-16 21:31:00,44.7,31.0,29.69,NNW,340,6.0,-999.0,58,-99.99,,,0.00,weatherlink.com 1.10,2013-04-17 04:31:00,
2013-04-16 21:46:00,45.4,31.0,29.69,NE,38,0.0,-999.0,57,-99.99,,,0.00,weatherlink.com 1.10,2013-04-17 04:46:00,
2013-04-16 22:01:00,45.3,31.0,29.70,NNE,30,0.0,-999.0,58,-99.99,,,0.00,weatherlink.com 1.10,2013-04-17 05:01:00,
2013-04-16 22:16:00,46.2,30.0,29.70,NE,56,4.0,-999.0,53,-99.99,,,0.00,weatherlink.com 1.10,2013-04-17 05:16:00,
2013-04-16 22:31:00,45.8,30.0,29.70,North,9,0.0,-999.0,54,-99.99,,,0.00,weatherlink.com 1.10,2013-04-17 05:31:00,
2013-04-16 22:46:00,45.1,30.0,29.70,North,11,0.0,-999.0,55,-99.99,,,0.00,weatherlink.com 1.10,2013-04-17 05:46:00,
2013-04-16 23:01:00,45.0,30.0,29.70,North,360,0.0,-999.0,57,-99.99,,,0.00,weatherlink.com 1.10,2013-04-17 06:01:00,
2013-04-16 23:16:00,45.5,30.0,29.70,NNE,19,2.0,-999.0,54,-99.99,,,0.00,weatherlink.com 1.10,2013-04-17 06:16:00,
2013-04-16 23:31:00,46.7,30.0,29.70,NNW,341,4.0,-999.0,53,-99.99,,,0.00,weatherlink.com 1.10,2013-04-17 06:31:00,
2013-04-16 23:46:00,46.8,30.0,29.70,NNE,19,3.0,-999.0,53,-99.99,,,0.00,weatherlink.com 1.10,2013-04-17 06:46:00,